createdAt,value
2022-08-22T00:00:16.010Z,53.00
2022-08-22T00:03:15.188Z,53.66
2022-08-22T00:05:44.601Z,54.39
2022-08-22T00:08:23.095Z,54.91
2022-08-22T00:11:08.156Z,54.64
2022-08-22T00:14:07.338Z,53.72
2022-08-22T00:16:53.480Z,54.15
2022-08-22T00:19:52.006Z,54.50
2022-08-22T00:22:45.299Z,54.83
2022-08-22T00:25:26.245Z,55.33
2022-08-22T00:28:18.500Z,55.30
2022-08-22T00:30:50.964Z,55.90
2022-08-22T00:33:30.757Z,55.46
2022-08-22T00:36:09.459Z,55.47
2022-08-22T00:38:45.059Z,55.47
2022-08-22T00:41:30.522Z,55.45
2022-08-22T00:44:30.865Z,54.44
2022-08-22T00:47:18.813Z,53.66
2022-08-22T00:50:22.120Z,54.70
2022-08-22T00:53:30.901Z,54.69
2022-08-22T00:56:16.076Z,55.12
2022-08-22T00:58:42.630Z,55.71
2022-08-22T01:01:13.617Z,55.42
2022-08-22T01:03:49.392Z,54.83
2022-08-22T01:06:43.662Z,55.01
2022-08-22T01:09:22.155Z,55.01
2022-08-22T01:12:11.584Z,54.92
2022-08-22T01:14:41.186Z,54.66
2022-08-22T01:17:26.146Z,54.20
2022-08-22T01:20:29.429Z,55.68
2022-08-22T01:23:01.778Z,54.68
2022-08-22T01:25:49.981Z,54.03
2022-08-22T01:28:54.489Z,53.31
2022-08-22T01:31:46.030Z,53.60
2022-08-22T01:34:49.816Z,54.27
2022-08-22T01:37:59.915Z,54.59
2022-08-22T01:40:53.890Z,54.97
2022-08-22T01:43:59.818Z,53.96
2022-08-22T01:47:06.897Z,53.64
2022-08-22T01:49:33.613Z,54.22
2022-08-22T01:52:36.980Z,53.92
2022-08-22T01:55:30.176Z,55.36
2022-08-22T01:58:03.698Z,55.72
2022-08-22T02:00:51.866Z,55.65
2022-08-22T02:03:42.593Z,56.04
2022-08-22T02:06:17.086Z,55.56
2022-08-22T02:08:58.979Z,56.10
2022-08-22T02:11:52.559Z,55.74
2022-08-22T02:14:31.593Z,54.04
2022-08-22T02:17:17.380Z,54.14
2022-08-22T02:19:57.622Z,54.22
2022-08-22T02:22:53.348Z,54.21
2022-08-22T02:25:32.646Z,54.43
2022-08-22T02:28:08.328Z,54.54
2022-08-22T02:30:50.984Z,54.86
2022-08-22T02:33:49.165Z,56.33
2022-08-22T02:36:49.608Z,56.33
2022-08-22T02:39:22.054Z,56.70
2022-08-22T02:41:59.940Z,56.89
2022-08-22T02:44:39.081Z,56.09
2022-08-22T02:47:09.534Z,56.66
2022-08-22T02:49:48.554Z,55.74
2022-08-22T02:52:41.267Z,55.28
2022-08-22T02:55:15.846Z,54.39
2022-08-22T02:57:52.461Z,56.13
2022-08-22T03:00:32.789Z,55.11
2022-08-22T03:03:14.971Z,54.91
2022-08-22T03:05:44.304Z,55.30
2022-08-22T03:08:17.060Z,54.64
2022-08-22T03:10:56.618Z,55.44
2022-08-22T03:13:33.603Z,54.95
2022-08-22T03:16:10.458Z,54.14
2022-08-22T03:18:43.093Z,55.05
2022-08-22T03:21:24.488Z,55.85
2022-08-22T03:24:01.088Z,56.17
2022-08-22T03:26:43.857Z,55.62
2022-08-22T03:29:36.779Z,56.33
2022-08-22T03:32:16.654Z,55.37
2022-08-22T03:35:08.635Z,55.06
2022-08-22T03:37:35.182Z,55.94
2022-08-22T03:40:19.951Z,55.78
2022-08-22T03:43:04.696Z,56.08
2022-08-22T03:45:38.477Z,56.76
2022-08-22T03:48:16.404Z,56.03
2022-08-22T03:51:34.190Z,55.10
2022-08-22T03:54:35.549Z,55.35
2022-08-22T03:57:22.456Z,55.52
2022-08-22T04:00:21.297Z,56.52
2022-08-22T04:03:38.373Z,56.89
2022-08-22T04:06:25.420Z,56.06
2022-08-22T04:09:25.332Z,55.75
2022-08-22T04:12:22.653Z,55.76
2022-08-22T04:15:19.299Z,55.78
2022-08-22T04:18:04.609Z,56.58
2022-08-22T04:21:06.097Z,55.34
2022-08-22T04:23:41.117Z,56.41
2022-08-22T04:26:13.753Z,56.15
2022-08-22T04:28:48.080Z,56.04
2022-08-22T04:31:22.476Z,56.05
2022-08-22T04:34:01.416Z,55.93
2022-08-22T04:36:45.380Z,56.67
2022-08-22T04:39:20.406Z,55.81
2022-08-22T04:41:53.444Z,54.58
2022-08-22T04:44:29.954Z,54.17
2022-08-22T04:47:06.264Z,54.47
2022-08-22T04:49:38.556Z,54.45
2022-08-22T04:52:37.095Z,55.08
2022-08-22T04:55:24.851Z,56.05
2022-08-22T04:58:10.847Z,56.16
2022-08-22T05:00:49.536Z,55.98
2022-08-22T05:03:21.724Z,57.33
2022-08-22T05:05:50.393Z,56.20
2022-08-22T05:08:23.547Z,55.73
2022-08-22T05:10:52.070Z,60.07
2022-08-22T05:13:24.996Z,60.12
2022-08-22T05:15:59.064Z,60.68
2022-08-22T05:18:36.374Z,61.10
2022-08-22T05:21:08.513Z,58.42
2022-08-22T05:23:40.269Z,56.84
2022-08-22T05:26:08.104Z,55.50
2022-08-22T05:28:45.472Z,56.64
2022-08-22T05:31:23.170Z,56.79
2022-08-22T05:33:58.691Z,56.75
2022-08-22T05:36:43.763Z,56.05
2022-08-22T05:39:14.603Z,56.08
2022-08-22T05:41:42.074Z,56.08
2022-08-22T05:44:23.294Z,57.31
2022-08-22T05:46:59.897Z,57.80
2022-08-22T05:49:38.866Z,57.32
2022-08-22T05:52:30.082Z,57.99
2022-08-22T05:55:07.144Z,58.80
2022-08-22T05:57:38.364Z,58.05
2022-08-22T06:00:10.110Z,57.26
2022-08-22T06:03:08.076Z,57.26
2022-08-22T06:05:46.446Z,54.41
2022-08-22T06:08:34.330Z,54.98
2022-08-22T06:11:12.020Z,55.53
2022-08-22T06:13:47.356Z,56.40
2022-08-22T06:16:27.440Z,56.82
2022-08-22T06:18:56.255Z,57.59
2022-08-22T06:21:37.644Z,59.05
2022-08-22T06:24:09.564Z,57.78
2022-08-22T06:26:40.170Z,54.26
2022-08-22T06:29:08.746Z,53.89
2022-08-22T06:31:44.520Z,53.64
2022-08-22T06:34:14.679Z,55.31
2022-08-22T06:36:45.967Z,56.23
2022-08-22T06:39:23.577Z,56.39
2022-08-22T06:42:14.535Z,56.55
2022-08-22T06:45:16.549Z,55.67
2022-08-22T06:47:52.167Z,55.09
2022-08-22T06:50:33.942Z,55.86
2022-08-22T06:53:20.224Z,55.37
2022-08-22T06:55:52.574Z,51.77
2022-08-22T06:58:26.782Z,54.04
2022-08-22T07:01:11.806Z,53.80
2022-08-22T07:03:43.862Z,55.54
2022-08-22T07:06:17.310Z,51.76
2022-08-22T07:08:44.970Z,53.42
2022-08-22T07:11:27.499Z,53.99
2022-08-22T07:13:58.705Z,54.82
2022-08-22T07:16:34.597Z,54.70
2022-08-22T07:19:01.993Z,53.53
2022-08-22T07:21:45.759Z,52.99
2022-08-22T07:24:24.831Z,50.79
2022-08-22T07:27:04.826Z,51.65
2022-08-22T07:29:48.110Z,52.92
2022-08-22T07:32:23.972Z,54.08
2022-08-22T07:35:04.512Z,50.22
2022-08-22T07:38:04.283Z,51.49
2022-08-22T07:40:58.813Z,50.36
2022-08-22T07:43:56.812Z,51.99
2022-08-22T07:46:35.939Z,51.49
2022-08-22T07:49:09.995Z,50.26
2022-08-22T07:51:45.008Z,48.74
2022-08-22T07:54:15.510Z,49.45
2022-08-22T07:56:50.296Z,49.39
2022-08-22T07:59:20.561Z,49.40
2022-08-22T08:01:53.427Z,48.33
2022-08-22T08:04:27.337Z,48.28
2022-08-22T08:06:57.659Z,47.47
2022-08-22T08:09:29.786Z,47.00
2022-08-22T08:11:59.374Z,47.93
2022-08-22T08:14:27.198Z,49.18
2022-08-22T08:17:03.717Z,50.45
2022-08-22T08:19:33.353Z,49.05
2022-08-22T08:22:00.207Z,47.24
2022-08-22T08:24:39.992Z,48.84
2022-08-22T08:27:33.529Z,48.37
2022-08-22T08:30:17.466Z,49.30
2022-08-22T08:32:51.019Z,47.63
2022-08-22T08:35:28.728Z,47.24
2022-08-22T08:38:20.428Z,47.58
2022-08-22T08:41:02.032Z,47.24
2022-08-22T08:43:56.451Z,47.84
2022-08-22T08:46:55.882Z,47.64
2022-08-22T08:49:42.143Z,46.82
2022-08-22T08:52:19.574Z,46.75
2022-08-22T08:54:58.336Z,47.21
2022-08-22T08:57:55.843Z,48.64
2022-08-22T09:00:30.311Z,48.46
2022-08-22T09:03:51.535Z,46.71
2022-08-22T09:06:42.984Z,46.55
2022-08-22T09:09:34.884Z,47.89
2022-08-22T09:12:14.772Z,46.81
2022-08-22T09:14:58.450Z,46.33
2022-08-22T09:17:57.756Z,46.72
2022-08-22T09:20:32.289Z,46.37
2022-08-22T09:23:16.945Z,46.13
2022-08-22T09:26:01.077Z,45.77
2022-08-22T09:28:56.808Z,45.82
2022-08-22T09:31:48.217Z,45.38
2022-08-22T09:34:25.686Z,46.13
2022-08-22T09:37:35.215Z,44.95
2022-08-22T09:40:09.827Z,45.87
2022-08-22T09:43:11.016Z,45.04
2022-08-22T09:45:38.218Z,46.56
2022-08-22T09:48:30.446Z,44.00
2022-08-22T09:51:33.845Z,44.02
2022-08-22T09:54:31.396Z,43.22
2022-08-22T09:57:22.594Z,41.64
2022-08-22T10:00:09.996Z,45.51
2022-08-22T10:03:02.018Z,43.23
2022-08-22T10:06:02.524Z,41.68
2022-08-22T10:08:56.723Z,41.78
2022-08-22T10:11:42.184Z,42.29
2022-08-22T10:14:22.331Z,40.60
2022-08-22T10:17:02.440Z,42.64
2022-08-22T10:19:50.342Z,42.54
2022-08-22T10:22:39.412Z,43.15
2022-08-22T10:25:48.081Z,41.94
2022-08-22T10:28:41.980Z,42.27
2022-08-22T10:31:26.212Z,39.99
2022-08-22T10:33:59.374Z,40.74
2022-08-22T10:36:49.795Z,40.53
2022-08-22T10:39:24.856Z,40.05
2022-08-22T10:42:20.141Z,38.16
2022-08-22T10:45:08.105Z,38.59
2022-08-22T10:47:41.933Z,36.76
2022-08-22T10:50:20.107Z,40.18
2022-08-22T10:53:16.711Z,39.07
2022-08-22T10:55:47.232Z,38.49
2022-08-22T10:58:24.404Z,38.96
2022-08-22T11:00:55.074Z,39.58
2022-08-22T11:04:06.980Z,38.15
2022-08-22T11:06:59.698Z,38.27
2022-08-22T11:09:42.041Z,38.74
2022-08-22T11:12:34.673Z,36.57
2022-08-22T11:15:09.840Z,32.23
2022-08-22T11:18:02.612Z,35.10
2022-08-22T11:20:56.627Z,34.53
2022-08-22T11:23:23.263Z,36.82
2022-08-22T11:26:05.011Z,32.33
2022-08-22T11:29:17.201Z,36.35
2022-08-22T11:32:05.671Z,33.77
2022-08-22T11:34:57.462Z,36.00
2022-08-22T11:37:46.834Z,31.03
2022-08-22T11:40:35.875Z,31.71
2022-08-22T11:43:28.878Z,32.12
2022-08-22T11:46:15.740Z,31.01
2022-08-22T11:49:06.392Z,34.06
2022-08-22T11:51:58.531Z,32.02
2022-08-22T11:54:42.064Z,30.56
2022-08-22T11:57:16.250Z,29.36
2022-08-22T11:59:43.363Z,31.16
2022-08-22T12:02:26.384Z,33.52
2022-08-22T12:04:59.663Z,31.11
2022-08-22T12:07:32.544Z,29.29
2022-08-22T12:10:04.778Z,29.58
2022-08-22T12:12:31.394Z,29.02
2022-08-22T12:15:21.623Z,29.62
2022-08-22T12:18:25.523Z,32.37
2022-08-22T12:21:16.001Z,33.83
2022-08-22T12:24:06.018Z,33.78
2022-08-22T12:27:18.187Z,35.21
2022-08-22T12:30:03.660Z,32.06
2022-08-22T12:32:58.879Z,34.60
2022-08-22T12:35:53.646Z,33.64
2022-08-22T12:38:29.086Z,33.80
2022-08-22T12:41:35.343Z,32.57
2022-08-22T12:44:16.489Z,33.06
2022-08-22T12:47:21.473Z,33.30
2022-08-22T12:50:13.118Z,31.01
2022-08-22T12:53:15.905Z,33.99
2022-08-22T12:56:14.482Z,34.23
2022-08-22T12:59:02.658Z,32.18
2022-08-22T13:01:38.389Z,31.33
2022-08-22T13:04:29.686Z,31.58
2022-08-22T13:07:07.328Z,31.71
2022-08-22T13:09:38.771Z,31.61
2022-08-22T13:12:20.074Z,30.69
2022-08-22T13:14:52.138Z,33.14
2022-08-22T13:17:24.084Z,32.79
2022-08-22T13:19:56.960Z,30.88
2022-08-22T13:22:29.097Z,32.99
2022-08-22T13:25:04.880Z,34.29
2022-08-22T13:27:51.359Z,32.03
2022-08-22T13:30:29.034Z,32.22
2022-08-22T13:33:04.695Z,32.40
2022-08-22T13:35:52.600Z,31.48
2022-08-22T13:38:27.633Z,32.61
2022-08-22T13:40:57.205Z,32.23
2022-08-22T13:43:31.197Z,30.97
2022-08-22T13:46:02.441Z,31.91
2022-08-22T13:48:46.699Z,32.22
2022-08-22T13:51:28.832Z,29.63
2022-08-22T13:54:19.697Z,30.09
2022-08-22T13:56:57.161Z,29.29
2022-08-22T13:59:52.544Z,30.18
2022-08-22T14:02:30.837Z,29.02
2022-08-22T14:05:05.598Z,28.70
2022-08-22T14:07:38.811Z,30.04
2022-08-22T14:10:18.982Z,30.21
2022-08-22T14:12:55.094Z,29.26
2022-08-22T14:15:26.246Z,31.15
2022-08-22T14:18:11.458Z,30.19
2022-08-22T14:20:40.168Z,29.96
2022-08-22T14:23:29.289Z,29.22
2022-08-22T14:25:57.409Z,29.95
2022-08-22T14:28:27.318Z,31.47
2022-08-22T14:31:02.825Z,31.39
2022-08-22T14:33:40.914Z,32.71
2022-08-22T14:36:22.209Z,30.84
2022-08-22T14:39:02.360Z,29.78
2022-08-22T14:42:12.346Z,32.45
2022-08-22T14:44:48.874Z,32.60
2022-08-22T14:47:52.779Z,32.03
2022-08-22T14:50:39.389Z,31.83
2022-08-22T14:53:10.244Z,31.25
2022-08-22T14:55:39.289Z,29.51
2022-08-22T14:58:16.356Z,29.07
2022-08-22T15:00:46.509Z,30.86
2022-08-22T15:03:27.615Z,29.74
2022-08-22T15:05:57.485Z,30.43
2022-08-22T15:08:27.917Z,30.78
2022-08-22T15:11:13.052Z,30.52
2022-08-22T15:13:48.772Z,30.30
2022-08-22T15:16:32.089Z,30.02
2022-08-22T15:19:00.028Z,29.16
2022-08-22T15:21:38.738Z,29.90
2022-08-22T15:24:13.949Z,26.97
2022-08-22T15:26:51.237Z,27.19
2022-08-22T15:29:22.420Z,27.69
2022-08-22T15:31:52.491Z,28.43
2022-08-22T15:34:45.969Z,28.91
2022-08-22T15:37:18.906Z,29.13
2022-08-22T15:40:11.592Z,28.42
2022-08-22T15:42:48.609Z,28.35
2022-08-22T15:45:33.995Z,28.51
2022-08-22T15:48:04.475Z,26.91
2022-08-22T15:50:38.780Z,27.63
2022-08-22T15:53:41.374Z,28.89
2022-08-22T15:56:16.634Z,28.37
2022-08-22T15:58:48.633Z,30.26
2022-08-22T16:01:20.823Z,28.96
2022-08-22T16:04:01.935Z,30.01
2022-08-22T16:06:58.149Z,29.94
2022-08-22T16:09:46.629Z,29.85
2022-08-22T16:12:51.743Z,30.18
2022-08-22T16:15:55.755Z,30.24
2022-08-22T16:18:43.514Z,30.89
2022-08-22T16:21:17.931Z,30.10
2022-08-22T16:23:54.054Z,31.16
2022-08-22T16:26:30.568Z,30.72
2022-08-22T16:29:02.117Z,30.30
2022-08-22T16:31:37.661Z,30.58
2022-08-22T16:34:16.738Z,31.33
2022-08-22T16:37:23.249Z,30.20
2022-08-22T16:39:58.403Z,29.72
2022-08-22T16:42:38.226Z,30.58
2022-08-22T16:45:29.686Z,31.24
2022-08-22T16:47:58.276Z,30.94
2022-08-22T16:50:34.014Z,32.24
2022-08-22T16:53:10.206Z,34.12
2022-08-22T16:55:43.894Z,34.53
2022-08-22T16:58:44.910Z,35.62
2022-08-22T17:01:16.603Z,36.24
2022-08-22T17:04:10.823Z,37.54
2022-08-22T17:06:55.470Z,38.31
2022-08-22T17:09:45.941Z,37.61
2022-08-22T17:12:30.888Z,38.47
2022-08-22T17:15:33.939Z,38.44
2022-08-22T17:18:34.445Z,40.53
2022-08-22T17:21:25.831Z,40.59
2022-08-22T17:24:33.529Z,40.24
2022-08-22T17:27:07.847Z,40.84
2022-08-22T17:29:53.822Z,40.66
2022-08-22T17:32:32.465Z,42.25
2022-08-22T17:35:09.656Z,41.35
2022-08-22T17:38:04.032Z,41.33
2022-08-22T17:40:38.630Z,41.88
2022-08-22T17:43:14.337Z,42.43
2022-08-22T17:46:13.658Z,42.25
2022-08-22T17:48:59.929Z,42.91
2022-08-22T17:51:38.922Z,42.07
2022-08-22T17:54:14.566Z,41.02
2022-08-22T17:57:05.144Z,41.37
2022-08-22T17:59:55.263Z,41.42
2022-08-22T18:02:34.603Z,41.98
2022-08-22T18:05:10.054Z,41.24
2022-08-22T18:08:04.316Z,41.84
2022-08-22T18:10:53.802Z,41.45
2022-08-22T18:13:49.742Z,42.62
2022-08-22T18:16:16.423Z,42.36
2022-08-22T18:18:54.134Z,42.67
2022-08-22T18:21:35.352Z,43.04
2022-08-22T18:24:22.755Z,43.06
2022-08-22T18:26:52.846Z,43.11
2022-08-22T18:29:43.525Z,43.61
2022-08-22T18:32:26.637Z,43.62
2022-08-22T18:35:02.792Z,43.39
2022-08-22T18:37:33.007Z,43.75
2022-08-22T18:40:13.433Z,43.89
2022-08-22T18:42:45.486Z,42.97
2022-08-22T18:45:43.835Z,43.00
2022-08-22T18:48:34.274Z,43.46
2022-08-22T18:51:24.296Z,43.16
2022-08-22T18:53:54.116Z,43.14
2022-08-22T18:56:50.334Z,43.18
2022-08-22T18:59:46.600Z,43.99
2022-08-22T19:02:55.693Z,43.17
2022-08-22T19:05:33.966Z,44.22
2022-08-22T19:08:00.981Z,43.46
2022-08-22T19:10:55.155Z,43.17
2022-08-22T19:13:42.742Z,43.13
2022-08-22T19:16:18.137Z,44.01
2022-08-22T19:18:54.324Z,42.54
2022-08-22T19:22:00.354Z,42.10
2022-08-22T19:24:26.907Z,42.81
2022-08-22T19:27:18.321Z,43.05
2022-08-22T19:29:44.950Z,41.96
2022-08-22T19:32:46.726Z,41.67
2022-08-22T19:35:23.573Z,42.67
2022-08-22T19:37:54.246Z,42.68
2022-08-22T19:40:45.543Z,42.18
2022-08-22T19:43:30.173Z,42.32
2022-08-22T19:45:59.785Z,43.33
2022-08-22T19:48:31.521Z,43.17
2022-08-22T19:51:20.459Z,43.87
2022-08-22T19:54:08.470Z,43.69
2022-08-22T19:56:56.295Z,42.62
2022-08-22T19:59:50.825Z,42.37
2022-08-22T20:02:37.559Z,43.42
2022-08-22T20:05:06.894Z,43.88
2022-08-22T20:07:36.252Z,44.20
2022-08-22T20:10:09.502Z,43.20
2022-08-22T20:12:43.761Z,43.80
2022-08-22T20:15:23.515Z,42.77
2022-08-22T20:20:56.297Z,42.44
2022-08-22T20:23:28.304Z,43.91
2022-08-22T20:25:57.065Z,43.52
2022-08-22T20:28:33.842Z,43.05
2022-08-22T20:31:06.100Z,43.62
2022-08-22T20:33:37.524Z,44.18
2022-08-22T20:36:27.095Z,43.44
2022-08-22T20:39:00.289Z,43.43
2022-08-22T20:41:40.670Z,43.09
2022-08-22T20:44:29.441Z,43.34
2022-08-22T20:47:06.047Z,43.47
2022-08-22T20:49:44.904Z,43.99
2022-08-22T20:52:42.768Z,45.37
2022-08-22T20:55:27.339Z,44.83
2022-08-22T20:58:03.474Z,45.45
2022-08-22T21:00:35.358Z,45.31
2022-08-22T21:03:26.721Z,45.33
2022-08-22T21:05:53.607Z,44.27
2022-08-22T21:08:24.223Z,43.09
2022-08-22T21:11:19.758Z,42.83
2022-08-22T21:13:47.132Z,43.33
2022-08-22T21:16:18.602Z,43.86
2022-08-22T21:18:50.812Z,43.48
2022-08-22T21:21:18.062Z,44.53
2022-08-22T21:23:48.341Z,44.57
2022-08-22T21:26:26.340Z,45.59
2022-08-22T21:29:03.011Z,45.14
2022-08-22T21:31:36.701Z,46.05
2022-08-22T21:34:03.572Z,45.43
2022-08-22T21:36:31.599Z,45.11
2022-08-22T21:39:03.768Z,44.71
2022-08-22T21:41:51.498Z,44.92
2022-08-22T21:44:36.327Z,45.68
2022-08-22T21:47:30.427Z,45.79
2022-08-22T21:50:23.153Z,46.09
2022-08-22T21:52:55.692Z,46.60
2022-08-22T21:55:52.368Z,46.52
2022-08-22T21:58:35.510Z,46.54
2022-08-22T22:01:22.321Z,46.29
2022-08-22T22:03:51.942Z,46.01
2022-08-22T22:06:18.493Z,46.89
2022-08-22T22:08:45.729Z,46.59
2022-08-22T22:11:14.970Z,47.23
2022-08-22T22:13:42.429Z,46.70
2022-08-22T22:16:12.125Z,46.48
2022-08-22T22:18:39.287Z,47.67
2022-08-22T22:21:06.051Z,47.38
2022-08-22T22:23:32.736Z,46.56
2022-08-22T22:26:02.442Z,48.03
2022-08-22T22:28:32.276Z,47.24
2022-08-22T22:30:58.951Z,47.32
2022-08-22T22:33:31.862Z,47.66
2022-08-22T22:36:03.939Z,47.83
2022-08-22T22:38:30.683Z,47.88
2022-08-22T22:40:57.292Z,46.60
2022-08-22T22:43:25.939Z,45.95
2022-08-22T22:45:52.557Z,45.52
2022-08-22T22:48:24.480Z,45.17
2022-08-22T22:50:53.396Z,45.12
2022-08-22T22:53:21.402Z,45.95
2022-08-22T22:56:05.353Z,46.05
2022-08-22T22:58:33.345Z,46.35
2022-08-22T23:01:08.127Z,46.25
2022-08-22T23:03:34.815Z,46.04
2022-08-22T23:06:01.428Z,46.03
2022-08-22T23:08:28.169Z,46.13
2022-08-22T23:10:54.818Z,45.54
2022-08-22T23:13:21.792Z,46.07
2022-08-22T23:15:48.367Z,46.22
2022-08-22T23:18:15.172Z,45.83
2022-08-22T23:20:41.757Z,45.43
2022-08-22T23:23:08.410Z,46.52
2022-08-22T23:25:35.273Z,44.96
2022-08-22T23:28:02.597Z,44.92
2022-08-22T23:30:30.325Z,45.08
2022-08-22T23:32:56.994Z,45.79
2022-08-22T23:35:23.509Z,46.32
2022-08-22T23:37:50.189Z,45.91
2022-08-22T23:40:16.953Z,45.64
2022-08-22T23:42:43.728Z,46.33
2022-08-22T23:45:10.498Z,46.78
2022-08-22T23:47:37.304Z,47.02
2022-08-22T23:50:05.902Z,47.00
2022-08-22T23:52:33.444Z,46.34
2022-08-22T23:54:59.954Z,45.64
2022-08-22T23:57:27.637Z,46.23
2022-08-22T23:59:57.365Z,46.29
